A01 weather

Dwellingup Airstrip
Dwellingup, Western Australia, Australia

Public forecast

Using degrees Celsius for public forecast. Weather courtesy of forecast.io.

Closest aviation weather report (METAR) to Dwellingup Airstrip

Closest report is Perth Jandakot Airport, 37.1 nm (68.6 km) NNW. Retrieved 2019/10/13 23:30 UTC (20 minutes ago):

YPJT 132330Z AUTO 18006KT 9999 // NCD 14/13 Q1019 RF000/0012

Closest aviation forecast (TAF) to Dwellingup Airstrip

Forecast is more than 6 hours old.

Closest forecast is Perth Jandakot Airport, 37.1 nm (68.6 km) NNW. Retrieved 2019/10/13 12:00 UTC (12 hours ago):

TAF YPJT 131036Z 1312/1406 21010KT 9999 FEW030 SCT045 FM131500 VRB05KT 9999 -SHRA SCT020 BKN030 FM131900 VRB05KT 9999 BKN010 FM132300 17007KT 9999 SCT020 BKN030 INTER 1314/1324 3000 SHRA BKN008 PROB30 1314/1323 0300 FG